Time;durP1;ratioP1;P1;durP2;ratioP2;P2;SDS_P1;SDS_P2;PMS_P1;PMS_P2;Temp;Humidity;BMP_temperature;BMP_pressure;BME280_temperature;BME280_humidity;BME280_pressure;Samples;Min_cycle;Max_cycle;Signal;HPM_P1;HPM_P2
2022/05/23 00:00:18;;;;;;;0.07;0.07;;;14.50;67.50;;;12.97;56.09;99810.94;10231462;28;96930;-82
2022/05/23 00:05:22;;;;;;;0.67;0.10;;;14.30;68.60;;;12.91;55.71;99809.03;10250288;28;96789;-82
2022/05/23 00:10:25;;;;;;;0.20;0.10;;;14.20;68.50;;;12.92;56.28;99812.53;10263182;28;98068;-82
2022/05/23 00:15:29;;;;;;;0.20;0.20;;;14.20;70.00;;;12.84;56.89;99813.50;10244461;28;98844;-82
2022/05/23 00:20:32;;;;;;;0.00;0.00;;;14.10;71.10;;;12.69;57.46;99815.41;10234504;28;96663;-82
2022/05/23 00:25:35;;;;;;;0.00;0.00;;;14.00;69.90;;;12.53;57.88;99817.31;10258850;28;96624;-82
2022/05/23 00:30:37;;;;;;;0.10;0.10;;;13.80;71.20;;;12.47;58.39;99820.72;10238835;28;96605;-82
2022/05/23 00:35:50;;;;;;;0.10;0.10;;;13.80;71.70;;;12.41;58.23;99813.47;10238079;28;96776;-81
2022/05/23 00:46:28;;;;;;;1.90;0.97;;;13.60;71.60;;;12.16;59.34;99818.31;10246293;28;98218;-82
2022/05/23 00:51:32;;;;;;;0.20;0.10;;;13.50;73.00;;;12.03;59.85;99820.84;10237455;28;96531;-82
2022/05/23 00:56:44;;;;;;;0.20;0.10;;;13.40;73.40;;;11.98;59.86;99815.25;10211972;28;97323;-82
2022/05/23 01:01:47;;;;;;;0.00;0.00;;;13.30;73.00;;;11.88;60.23;99815.53;10179463;28;97145;-82
2022/05/23 01:06:50;;;;;;;0.10;0.10;;;13.20;73.90;;;11.77;60.44;99818.63;10211350;28;96476;-82
2022/05/23 01:11:56;;;;;;;0.47;0.40;;;13.10;74.40;;;11.71;60.87;99814.06;10206450;28;97351;-82
2022/05/23 01:16:59;;;;;;;0.40;0.40;;;13.00;74.80;;;11.66;61.13;99811.94;10211016;28;96639;-82
2022/05/23 01:22:14;;;;;;;0.13;0.13;;;12.90;74.40;;;11.62;60.67;99817.81;10201482;28;96641;-82
2022/05/23 01:27:18;;;;;;;0.10;0.10;;;12.90;73.90;;;11.61;61.54;99813.50;10167484;28;96898;-82
2022/05/23 01:32:21;;;;;;;0.10;0.10;;;13.00;74.30;;;11.59;61.52;99811.03;10230205;28;96688;-82
2022/05/23 01:37:24;;;;;;;0.20;0.20;;;13.00;74.70;;;11.55;61.70;99814.22;10232860;28;96670;-82
2022/05/23 01:42:27;;;;;;;0.10;0.10;;;12.90;74.90;;;11.48;62.15;99808.81;10230696;28;96989;-82
2022/05/23 01:47:31;;;;;;;0.10;0.07;;;12.90;76.00;;;11.36;62.10;99811.09;10232772;28;97378;-82
2022/05/23 01:52:34;;;;;;;0.00;0.00;;;12.70;75.60;;;11.34;62.27;99809.66;10200249;28;97163;-82
2022/05/23 01:57:37;;;;;;;0.20;0.20;;;12.70;75.80;;;11.27;62.22;99798.88;10256328;28;97164;-82
2022/05/23 02:02:44;;;;;;;0.10;0.10;;;12.60;76.50;;;11.17;62.54;99801.00;10273325;28;96537;-82
2022/05/23 02:07:47;;;;;;;0.77;0.60;;;12.50;75.90;;;11.17;62.33;99793.84;10241629;28;96898;-82
2022/05/23 02:12:51;;;;;;;0.00;0.00;;;12.50;75.50;;;11.10;62.86;99797.41;10258120;28;96495;-82
2022/05/23 02:17:57;;;;;;;0.30;0.20;;;12.50;77.10;;;10.97;63.51;99800.66;10274094;28;97351;-82
2022/05/23 02:23:00;;;;;;;0.10;0.10;;;12.40;77.80;;;10.86;63.65;99801.94;10205015;28;96488;-82
2022/05/23 02:28:03;;;;;;;0.10;0.10;;;12.20;77.80;;;10.76;63.78;99801.34;10239678;28;96651;-82
2022/05/23 02:33:06;;;;;;;0.10;0.10;;;12.20;78.40;;;10.66;64.50;99793.63;10268918;28;96415;-81
2022/05/23 02:38:10;;;;;;;0.60;0.20;;;12.00;78.90;;;10.56;64.54;99786.91;10265210;28;96679;-82
2022/05/23 02:43:13;;;;;;;0.00;0.00;;;11.90;78.90;;;10.50;65.00;99785.78;10251398;28;96928;-81
2022/05/23 02:48:15;;;;;;;0.13;0.10;;;11.80;80.00;;;10.44;65.37;99782.00;10247818;28;96717;-82
2022/05/23 02:53:18;;;;;;;0.20;0.10;;;11.80;80.40;;;10.42;65.57;99791.97;10259425;28;96994;-82
2022/05/23 02:58:21;;;;;;;0.10;0.10;;;11.80;79.80;;;10.44;65.53;99791.81;10253709;28;96578;-82
2022/05/23 03:03:24;;;;;;;0.00;0.00;;;11.80;80.00;;;10.39;65.95;99787.03;10247361;28;96687;-82
2022/05/23 03:08:28;;;;;;;4.23;0.40;;;11.70;80.50;;;10.35;66.15;99783.06;10268623;28;97329;-81
2022/05/23 03:13:32;;;;;;;1.23;0.47;;;11.70;81.40;;;10.28;66.30;99783.94;10253531;28;96877;-83
2022/05/23 03:18:35;;;;;;;0.00;0.00;;;11.70;81.30;;;10.23;66.66;99791.59;10249856;28;96764;-82
2022/05/23 03:29:02;;;;;;;;;;;11.60;82.10;;;10.21;67.48;99798.91;10253547;28;96668;-82
2022/05/23 03:34:05;;;;;;;0.10;0.00;;;11.60;84.20;;;10.15;68.30;99795.94;10260833;28;96581;-82
2022/05/23 03:39:10;;;;;;;0.73;0.40;;;11.50;84.90;;;10.13;68.46;99808.53;10250963;28;96462;-82
2022/05/23 03:44:13;;;;;;;0.20;0.20;;;11.50;85.50;;;10.19;68.64;99802.56;10247696;28;96865;-82
2022/05/23 03:49:16;;;;;;;0.10;0.10;;;11.50;86.90;;;10.28;69.48;99806.03;10209357;28;96982;-82
2022/05/23 03:54:19;;;;;;;0.10;0.10;;;11.60;89.20;;;10.37;69.81;99807.59;10249155;28;96733;-82
2022/05/23 03:59:22;;;;;;;0.93;0.33;;;11.60;89.70;;;10.49;69.90;99802.72;10267701;28;97223;-84
2022/05/23 04:04:27;;;;;;;0.10;0.10;;;11.70;90.70;;;10.61;70.02;99805.78;10261496;28;96461;-84
2022/05/23 04:09:31;;;;;;;0.20;0.07;;;11.80;91.40;;;10.70;69.79;99805.56;10256007;28;96588;-84
2022/05/23 04:14:34;;;;;;;1.57;0.47;;;11.90;91.20;;;10.83;69.51;99796.97;10269731;28;96665;-84
2022/05/23 04:19:37;;;;;;;0.10;0.10;;;12.00;91.10;;;10.97;68.90;99806.84;10255563;28;97549;-84
2022/05/23 04:24:41;;;;;;;0.20;0.17;;;12.20;90.90;;;11.11;68.75;99805.22;10257508;28;98438;-84
2022/05/23 04:29:44;;;;;;;0.57;0.33;;;12.30;91.10;;;11.20;68.57;99805.94;10236869;28;96720;-84
2022/05/23 04:40:09;;;;;;;0.10;0.10;;;12.50;90.60;;;11.52;68.51;99794.97;10266943;28;96616;-85
2022/05/23 04:45:15;;;;;;;0.30;0.23;;;12.70;91.30;;;11.69;68.02;99803.56;10260409;28;96999;-84
2022/05/23 04:50:17;;;;;;;0.67;0.60;;;12.90;91.40;;;11.83;67.00;99801.97;10255501;28;98190;-84
2022/05/23 04:55:21;;;;;;;0.10;0.10;;;13.00;90.70;;;11.98;67.23;99807.25;10251922;28;96685;-84
2022/05/23 05:00:24;;;;;;;0.20;0.20;;;13.10;90.60;;;12.19;66.91;99795.81;10254269;28;98572;-84
2022/05/23 05:05:29;;;;;;;0.77;0.47;;;13.30;90.70;;;12.38;66.91;99808.53;10252474;28;98537;-84
2022/05/23 05:10:32;;;;;;;0.40;0.20;;;13.50;91.00;;;12.59;66.56;99816.56;10237507;28;96688;-83
2022/05/23 05:15:35;;;;;;;0.17;0.17;;;13.70;90.80;;;12.79;66.33;99814.06;10266825;28;96969;-84
2022/05/23 05:20:38;;;;;;;0.50;0.40;;;13.90;90.90;;;13.06;66.85;99807.09;10252530;28;96631;-83
2022/05/23 05:25:41;;;;;;;0.07;0.07;;;14.10;91.20;;;13.32;66.12;99813.69;10250238;28;96533;-83
2022/05/23 05:30:54;;;;;;;0.00;0.00;;;14.40;90.40;;;13.61;65.79;99808.13;10283527;28;96627;-83
2022/05/23 05:36:23;;;;;;;0.20;0.20;;;14.70;90.30;;;13.88;63.53;99802.91;10276859;28;96562;-83
2022/05/23 05:42:14;;;;;;;0.00;0.00;;;14.90;86.50;;;14.14;62.03;99813.69;10253663;28;96913;-84
2022/05/23 05:47:19;;;;;;;0.45;0.20;;;15.20;85.20;;;14.41;60.91;99800.44;10232512;28;96588;-84
2022/05/23 05:52:33;;;;;;;0.50;0.40;;;15.50;83.80;;;14.67;59.55;99803.16;10246882;28;96772;-84
2022/05/23 05:57:36;;;;;;;0.10;0.10;;;15.70;82.30;;;14.95;57.78;99799.47;10236813;28;96702;-83
2022/05/23 06:02:39;;;;;;;3.00;0.40;;;16.00;80.80;;;15.24;57.96;99799.06;10252769;28;96644;-84
2022/05/23 06:13:04;;;;;;;0.13;0.10;;;16.60;80.10;;;15.74;55.53;99802.06;10253084;28;96625;-78
2022/05/23 06:18:07;;;;;;;0.22;0.20;;;16.80;77.60;;;15.89;53.63;99806.31;10258668;28;96639;-86
2022/05/23 06:23:10;;;;;;;0.20;0.20;;;17.00;72.90;;;16.05;54.14;99812.03;10234100;28;96709;-84
2022/05/23 06:28:13;;;;;;;0.38;0.22;;;17.10;75.20;;;16.28;49.67;99810.69;10267355;28;96554;-84
2022/05/23 06:33:16;;;;;;;0.10;0.00;;;17.30;71.70;;;16.57;49.00;99801.25;10253302;28;96441;-84
2022/05/23 06:38:19;;;;;;;0.10;0.10;;;17.60;70.70;;;16.82;48.65;99799.44;10252161;28;96653;-84
2022/05/23 06:43:22;;;;;;;0.75;0.32;;;17.90;69.20;;;17.09;49.09;99791.16;10236087;28;96635;-84
2022/05/23 06:48:26;;;;;;;0.03;0.03;;;18.20;70.00;;;17.28;47.93;99787.50;10254735;28;96416;-84
2022/05/23 06:53:30;;;;;;;0.10;0.10;;;18.40;68.60;;;17.44;46.76;99775.34;10267726;28;96659;-84
2022/05/23 06:58:33;;;;;;;0.28;0.20;;;18.60;67.10;;;17.66;46.62;99775.72;10250184;28;96735;-85
2022/05/23 07:03:36;;;;;;;0.25;0.20;;;18.80;66.10;;;17.82;45.04;99772.47;10268405;28;96498;-84
2022/05/23 07:14:01;;;;;;;0.50;0.20;;;19.20;61.50;;;18.17;43.96;99763.72;10225361;28;97864;-84
2022/05/23 07:19:04;;;;;;;0.13;0.05;;;19.30;62.80;;;18.19;43.35;99750.91;10249452;28;97396;-84
2022/05/23 07:24:07;;;;;;;0.15;0.15;;;19.40;60.20;;;18.31;43.18;99751.75;10266397;28;96577;-84
2022/05/23 07:29:11;;;;;;;0.10;0.10;;;19.40;61.10;;;18.42;43.45;99737.53;10267247;28;96535;-84
2022/05/23 07:34:14;;;;;;;0.10;0.10;;;19.50;60.70;;;18.61;42.40;99732.06;10257730;28;97081;-84
2022/05/23 07:39:17;;;;;;;0.10;0.10;;;19.70;60.50;;;18.83;42.67;99724.25;10263285;28;96822;-84
2022/05/23 07:44:19;;;;;;;0.13;0.10;;;19.90;60.20;;;18.96;41.95;99719.47;10263162;28;98137;-83
2022/05/23 07:49:23;;;;;;;0.00;0.00;;;20.10;59.10;;;19.09;42.07;99731.06;10265488;28;97295;-84
2022/05/23 08:05:09;;;;;;;0.00;0.00;;;20.40;55.60;;;19.38;38.46;99722.03;10263653;28;96443;-83
2022/05/23 08:10:20;;;;;;;0.10;0.10;;;20.40;52.30;;;19.44;37.43;99707.59;10263773;28;96732;-83
2022/05/23 08:15:26;;;;;;;0.15;0.00;;;20.40;53.00;;;19.78;38.21;99705.88;10263642;28;96627;-83
2022/05/23 08:20:29;;;;;;;0.10;0.10;;;20.60;54.60;;;19.97;36.15;99698.44;10264374;28;97251;-84
2022/05/23 08:25:33;;;;;;;0.10;0.08;;;20.80;53.80;;;20.02;36.06;99698.50;10262481;28;96999;-84
2022/05/23 08:30:36;;;;;;;0.30;0.20;;;20.90;51.40;;;20.09;37.10;99687.59;10262802;28;96650;-84
2022/05/23 08:35:39;;;;;;;0.00;0.00;;;21.00;53.60;;;20.26;35.77;99687.59;10263608;28;96613;-83
2022/05/23 08:41:15;;;;;;;0.10;0.08;;;21.20;50.80;;;20.43;36.19;99676.81;10263018;28;96736;-84
2022/05/23 08:46:47;;;;;;;0.10;0.10;;;21.30;51.40;;;20.62;35.62;99677.44;10254962;28;96667;-83
2022/05/23 08:52:18;;;;;;;4.88;0.20;;;21.60;52.20;;;20.88;35.81;99657.03;10212238;28;96721;-83
2022/05/23 08:58:12;;;;;;;4.68;0.20;;;21.80;52.00;;;21.10;34.47;99658.69;10247893;28;96678;-83
2022/05/23 09:03:40;;;;;;;0.00;0.00;;;22.10;50.80;;;21.29;33.94;99653.00;10254131;28;96638;-84
2022/05/23 09:08:52;;;;;;;0.13;0.13;;;22.30;50.60;;;21.50;34.06;99649.50;10280504;28;96630;-83
2022/05/23 09:13:55;;;;;;;0.30;0.20;;;22.60;50.60;;;21.63;32.94;99635.56;10251803;28;97650;-84
2022/05/23 09:19:47;;;;;;;0.20;0.17;;;22.70;48.60;;;21.85;31.98;99632.03;10240397;28;97984;-84
2022/05/23 09:24:58;;;;;;;;;;;23.00;49.20;;;21.96;32.34;99628.34;10236476;28;96850;-84
2022/05/23 09:30:03;;;;;;;;;;;23.10;47.00;;;22.13;32.95;99630.94;10236903;28;96683;-83
2022/05/23 09:35:22;;;;;;;0.15;0.15;;;23.20;48.90;;;22.29;33.09;99630.00;10239292;28;96644;-83
2022/05/23 09:40:32;;;;;;;0.00;0.00;;;23.40;48.20;;;22.48;33.05;99627.72;10254000;28;96709;-83
2022/05/23 09:51:07;;;;;;;0.20;0.20;;;23.60;47.20;;;22.50;33.20;99622.88;10265734;28;97169;-82
2022/05/23 09:56:34;;;;;;;0.10;0.10;;;23.60;48.10;;;22.62;32.83;99617.25;10262439;28;96683;-83
2022/05/23 10:01:37;;;;;;;1.40;0.30;;;23.70;48.10;;;22.62;31.94;99611.84;10255744;28;97319;-82
2022/05/23 10:06:48;;;;;;;0.20;0.15;;;23.90;47.50;;;22.57;31.89;99619.94;10265459;28;96481;-84
2022/05/23 10:12:01;;;;;;;0.03;0.03;;;23.80;46.40;;;22.58;31.92;99616.97;10268892;28;96540;-83
2022/05/23 10:17:05;;;;;;;0.10;0.10;;;23.70;46.70;;;22.63;30.54;99619.72;10269021;28;97197;-84
2022/05/23 10:22:20;;;;;;;0.28;0.25;;;23.70;44.60;;;22.64;31.83;99604.28;10254244;28;96495;-84
2022/05/23 10:28:06;;;;;;;0.10;0.10;;;23.70;46.70;;;22.81;30.51;99593.28;10252024;28;96420;-84
2022/05/23 10:33:13;;;;;;;0.10;0.10;;;23.90;44.00;;;22.91;32.63;99591.47;10265674;28;96600;-83
2022/05/23 10:44:33;;;;;;;1.35;0.10;;;24.10;46.40;;;23.55;30.63;99578.66;10259610;28;97758;-83
2022/05/23 10:50:26;;;;;;;0.52;0.10;;;24.50;46.90;;;23.80;31.23;99561.63;10201326;28;96807;-83
2022/05/23 10:55:52;;;;;;;0.10;0.10;;;24.80;46.70;;;24.11;30.20;99563.28;10183830;28;96632;-84
2022/05/23 11:01:37;;;;;;;0.00;0.00;;;25.10;45.40;;;24.24;31.05;99551.88;10241731;28;96703;-84
2022/05/23 11:06:58;;;;;;;0.10;0.05;;;25.20;45.60;;;24.53;29.97;99543.97;10231022;28;96796;-84
2022/05/23 11:12:25;;;;;;;0.28;0.28;;;25.40;43.80;;;24.71;29.93;99549.88;10252534;28;98557;-83
2022/05/23 11:17:45;;;;;;;0.60;0.60;;;25.60;43.80;;;24.75;29.90;99537.38;10236430;28;96570;-84
2022/05/23 11:22:58;;;;;;;2.60;0.15;;;25.70;44.80;;;24.62;30.10;99541.50;10214469;28;96613;-83
2022/05/23 11:33:48;;;;;;;0.13;0.13;;;25.70;45.60;;;24.73;31.32;99542.28;10246765;28;98562;-84
2022/05/23 11:38:53;;;;;;;0.20;0.20;;;25.80;46.20;;;24.94;29.49;99535.66;10265412;28;96510;-83
2022/05/23 11:43:56;;;;;;;0.30;0.25;;;26.00;44.40;;;24.88;29.26;99530.53;10256349;28;96513;-83
2022/05/23 11:49:00;;;;;;;0.32;0.20;;;26.00;43.60;;;24.58;29.89;99540.41;10234448;28;96527;-84
2022/05/23 11:54:29;;;;;;;0.10;0.10;;;25.70;44.50;;;24.22;30.60;99521.44;10265828;28;96867;-84
2022/05/23 11:59:32;;;;;;;0.63;0.03;;;25.30;45.10;;;24.00;31.28;99534.53;10250688;28;97265;-84
2022/05/23 12:04:51;;;;;;;0.43;0.22;;;25.00;45.90;;;23.77;30.39;99531.25;10251264;28;96688;-83
2022/05/23 12:09:54;;;;;;;0.17;0.07;;;24.80;44.80;;;23.71;30.67;99537.75;10233770;28;96575;-84
2022/05/23 12:14:57;;;;;;;2.75;1.05;;;24.70;45.50;;;23.79;30.22;99533.69;10263667;28;98076;-84
2022/05/23 12:20:20;;;;;;;0.10;0.10;;;24.80;44.80;;;23.81;29.99;99536.97;10253543;28;96506;-83
2022/05/23 12:25:26;;;;;;;0.20;0.13;;;24.80;44.20;;;23.90;29.90;99518.22;10268696;28;96472;-83
2022/05/23 12:31:01;;;;;;;0.20;0.10;;;24.90;43.80;;;23.85;29.56;99510.09;10254127;28;96580;-84
2022/05/23 12:36:11;;;;;;;0.10;0.10;;;24.90;44.60;;;23.86;30.37;99500.84;10258484;28;96336;-83
2022/05/23 12:41:32;;;;;;;0.30;0.20;;;24.90;44.60;;;23.92;29.96;99502.47;10271643;28;97469;-84
2022/05/23 12:47:10;;;;;;;0.15;0.10;;;24.90;43.90;;;24.07;30.49;99490.81;10256491;28;96768;-83
2022/05/23 12:52:44;;;;;;;0.55;0.38;;;24.90;44.80;;;24.20;29.70;99487.53;10271017;28;96682;-83
2022/05/23 12:57:52;;;;;;;0.10;0.10;;;25.00;43.50;;;24.44;28.92;99487.78;10238649;28;96682;-83
2022/05/23 13:03:01;;;;;;;0.20;0.20;;;25.30;44.20;;;24.38;30.15;99476.09;10249318;28;98343;-83
2022/05/23 13:08:51;;;;;;;0.10;0.10;;;25.40;44.80;;;24.69;29.53;99465.94;10215813;28;96497;-83
2022/05/23 13:13:58;;;;;;;0.50;0.30;;;25.70;44.40;;;25.04;29.61;99456.00;10206280;28;96370;-84
2022/05/23 13:24:57;;;;;;;1.00;0.10;;;26.00;42.60;;;24.94;29.63;99453.31;10252837;28;96768;-83
2022/05/23 13:30:18;;;;;;;0.63;0.43;;;25.80;44.00;;;25.16;27.91;99437.47;10239407;28;96508;-83
2022/05/23 13:35:25;;;;;;;0.98;0.50;;;26.00;42.70;;;25.35;29.65;99435.69;10237860;28;96589;-83
2022/05/23 13:40:29;;;;;;;0.20;0.20;;;26.10;44.20;;;25.67;26.88;99436.22;10233559;28;96780;-91
2022/05/23 13:45:33;;;;;;;0.10;0.10;;;26.50;42.60;;;25.86;27.92;99435.28;10246497;28;97255;-84
2022/05/23 13:50:45;;;;;;;0.15;0.15;;;26.80;42.30;;;26.09;27.43;99433.69;10216890;28;96762;-83
2022/05/23 13:55:50;;;;;;;0.20;0.10;;;26.90;41.30;;;26.12;26.87;99429.56;10246007;28;96949;-85
2022/05/23 14:01:05;;;;;;;0.38;0.30;;;27.00;42.40;;;26.18;26.82;99419.44;10246323;28;96720;-84
2022/05/23 14:06:17;;;;;;;0.28;0.20;;;27.00;41.90;;;26.23;26.48;99417.47;10276930;28;97916;-83
2022/05/23 14:11:27;;;;;;;0.13;0.10;;;27.10;41.20;;;26.29;26.54;99407.31;10268191;28;96640;-84
2022/05/23 14:16:30;;;;;;;1.35;0.28;;;27.20;41.80;;;26.38;26.34;99414.53;10253809;28;96529;-84
2022/05/23 14:21:38;;;;;;;0.20;0.20;;;27.40;41.80;;;26.42;27.02;99402.00;10282092;28;98182;-84
2022/05/23 14:26:41;;;;;;;0.10;0.10;;;27.40;40.90;;;26.49;27.17;99400.84;10257220;28;97046;-84
2022/05/23 14:31:48;;;;;;;0.35;0.25;;;27.30;41.30;;;26.35;26.97;99393.34;10251259;28;96672;-83
2022/05/23 14:36:58;;;;;;;0.30;0.20;;;27.20;41.70;;;26.10;27.08;99390.94;10265622;28;96791;-83
2022/05/23 14:42:24;;;;;;;0.30;0.20;;;27.10;41.10;;;25.88;27.05;99392.25;10277870;28;97372;-84
2022/05/23 14:47:27;;;;;;;0.20;0.20;;;26.90;42.00;;;25.95;27.79;99386.47;10251753;28;96913;-84
2022/05/23 14:55:18;;;;;;;0.22;0.20;;;27.10;42.30;;;26.14;28.14;99381.88;10261179;28;96882;-84
2022/05/23 15:03:46;;;;;;;0.50;0.40;;;27.50;42.10;;;26.61;27.40;99360.34;10254405;28;96546;-79
2022/05/23 15:08:49;;;;;;;0.22;0.13;;;27.90;42.00;;;26.81;27.88;99362.81;10213238;28;96676;-83
2022/05/23 15:13:53;;;;;;;0.20;0.20;;;28.10;41.70;;;26.76;26.66;99353.88;10266863;28;96700;-93
2022/05/23 15:18:58;;;;;;;1.58;0.30;;;28.00;41.10;;;26.51;26.40;99350.41;10217976;28;96647;-83
2022/05/23 15:24:01;;;;;;;0.15;0.15;;;27.70;41.10;;;26.47;27.81;99345.84;10211657;28;96336;-84
2022/05/23 15:29:04;;;;;;;0.20;0.20;;;27.50;41.70;;;26.74;27.77;99335.09;10211893;28;96520;-84
2022/05/23 15:34:07;;;;;;;0.10;0.10;;;27.60;43.00;;;26.83;26.46;99338.78;10244777;28;98395;-83
2022/05/23 15:39:10;;;;;;;1.38;0.63;;;27.70;41.50;;;26.71;26.90;99335.69;10266337;28;96685;-84
2022/05/23 15:44:18;;;;;;;0.20;0.20;;;27.70;41.50;;;26.24;26.22;99320.25;10234095;28;96771;-94
2022/05/23 15:49:21;;;;;;;0.10;0.10;;;27.40;41.00;;;25.97;26.60;99326.28;10271448;28;96742;-90
2022/05/23 15:54:24;;;;;;;0.65;0.25;;;27.30;41.20;;;25.97;27.35;99331.72;10253898;28;96344;-84
2022/05/23 15:59:29;;;;;;;0.57;0.20;;;27.20;41.40;;;25.93;27.96;99328.78;10264095;28;96653;-83
2022/05/23 16:04:32;;;;;;;0.32;0.28;;;27.30;41.80;;;25.86;27.85;99322.88;10202856;28;96594;-83
2022/05/23 16:09:35;;;;;;;0.10;0.10;;;27.30;41.80;;;25.82;27.96;99313.69;10213187;28;96551;-83
2022/05/23 16:14:39;;;;;;;1.15;0.57;;;27.30;41.80;;;25.79;28.80;99303.34;10214198;28;96604;-82
2022/05/23 16:19:45;;;;;;;1.67;0.40;;;27.20;42.30;;;25.88;27.88;99307.88;10210066;28;97439;-80
2022/05/23 16:24:47;;;;;;;0.17;0.17;;;27.30;42.00;;;25.93;28.50;99311.66;10212921;28;97561;-81
2022/05/23 16:30:12;;;;;;;0.03;0.03;;;27.30;42.80;;;25.87;28.00;99300.81;10226509;28;96586;-80
2022/05/23 16:40:52;;;;;;;0.88;0.20;;;27.30;43.10;;;25.78;27.69;99299.81;10240942;28;96684;-81
2022/05/23 16:45:55;;;;;;;0.73;0.28;;;27.20;41.80;;;25.55;28.40;99300.59;10213816;28;97360;-81
2022/05/23 16:51:00;;;;;;;0.47;0.20;;;27.00;41.90;;;25.51;28.39;99305.81;10216234;28;96672;-80
2022/05/23 16:56:04;;;;;;;0.93;0.20;;;26.90;41.90;;;25.54;28.83;99299.78;10227120;28;96648;-80
2022/05/23 17:01:08;;;;;;;1.30;0.20;;;26.80;42.10;;;25.28;29.56;99312.03;10253238;28;97264;-80
2022/05/23 17:06:12;;;;;;;0.40;0.15;;;26.60;43.10;;;24.98;29.20;99310.34;10252005;28;96647;-81
2022/05/23 17:11:15;;;;;;;0.70;0.40;;;26.30;42.80;;;24.67;30.33;99307.06;10273940;28;96623;-81
2022/05/23 17:16:39;;;;;;;0.30;0.20;;;25.90;43.70;;;24.36;31.69;99306.44;10246899;28;96667;-81
2022/05/23 17:21:42;;;;;;;0.10;0.10;;;25.60;44.70;;;24.12;31.69;99304.34;10267070;28;97351;-81
2022/05/23 17:26:46;;;;;;;1.48;0.50;;;25.40;44.70;;;23.85;32.81;99299.28;10256008;28;96700;-81
2022/05/23 17:31:49;;;;;;;0.45;0.32;;;25.20;45.50;;;23.58;33.74;99324.03;10267961;28;96685;-81
2022/05/23 17:36:52;;;;;;;0.10;0.10;;;24.90;46.90;;;23.18;35.07;99322.97;10263165;28;97277;-80
2022/05/23 17:41:54;;;;;;;0.40;0.20;;;24.60;48.60;;;22.88;36.31;99331.91;10230343;28;97012;-81
2022/05/23 17:46:58;;;;;;;0.73;0.40;;;24.20;48.20;;;22.60;37.38;99318.84;10250520;28;97259;-80
2022/05/23 17:52:01;;;;;;;0.20;0.20;;;23.90;48.90;;;22.40;37.81;99322.31;10242661;28;96765;-81
2022/05/23 17:57:04;;;;;;;0.98;0.40;;;23.70;51.20;;;22.20;37.44;99316.84;10249129;28;96595;-81
2022/05/23 18:02:21;;;;;;;0.40;0.30;;;23.40;50.10;;;22.00;37.37;99337.28;10125453;28;96980;-81
2022/05/23 18:07:25;;;;;;;0.77;0.43;;;23.20;50.40;;;21.80;37.81;99339.91;10156561;28;96698;-81
2022/05/23 18:12:28;;;;;;;5.13;2.08;;;23.10;51.00;;;21.65;38.40;99340.59;10153396;28;97184;-82
2022/05/23 18:23:13;;;;;;;0.75;0.35;;;22.70;51.70;;;21.24;40.16;99353.81;10121088;28;98501;-81
2022/05/23 18:28:16;;;;;;;0.00;0.00;;;22.50;53.40;;;21.03;40.52;99355.53;10129312;28;96737;-83
2022/05/23 18:33:20;;;;;;;0.77;0.38;;;22.30;53.20;;;20.70;41.10;99369.25;10200418;28;97464;-83
2022/05/23 18:38:23;;;;;;;0.20;0.13;;;22.00;53.30;;;20.41;42.07;99376.72;10251190;28;97293;-83
2022/05/23 18:43:26;;;;;;;0.30;0.30;;;21.70;54.30;;;20.15;42.83;99383.69;10268743;28;96440;-83
2022/05/23 18:53:51;;;;;;;0.38;0.32;;;21.20;55.20;;;19.67;43.86;99406.72;10237804;28;97661;-83
2022/05/23 18:59:00;;;;;;;0.88;0.55;;;21.00;55.10;;;19.48;43.91;99415.03;10234442;28;96710;-83
2022/05/23 19:04:04;;;;;;;0.30;0.28;;;20.80;56.90;;;19.32;44.42;99418.56;10248095;28;97263;-83
2022/05/23 19:09:27;;;;;;;0.25;0.25;;;20.60;57.10;;;19.16;44.86;99422.03;10237450;28;98371;-83
2022/05/23 19:14:33;;;;;;;0.30;0.20;;;20.40;58.20;;;18.95;45.42;99418.16;10234188;28;96537;-81
2022/05/23 19:19:37;;;;;;;0.45;0.32;;;20.20;58.50;;;18.80;45.40;99426.78;10248279;28;97368;-83
2022/05/23 19:24:40;;;;;;;0.30;0.25;;;20.00;58.10;;;18.65;46.17;99429.13;10246919;28;97461;-83
2022/05/23 19:29:44;;;;;;;0.30;0.20;;;19.90;58.90;;;18.45;46.81;99435.75;10248781;28;96622;-83
2022/05/23 19:34:49;;;;;;;0.20;0.17;;;19.70;60.70;;;18.25;47.59;99446.09;10259636;28;96654;-83
2022/05/23 19:39:52;;;;;;;1.10;0.38;;;19.40;60.40;;;18.11;47.94;99453.59;10234634;28;96762;-83
2022/05/23 19:44:55;;;;;;;0.45;0.22;;;19.30;60.80;;;18.04;48.22;99452.88;10261881;28;97329;-83
2022/05/23 19:49:58;;;;;;;1.55;1.00;;;19.10;60.90;;;18.03;48.28;99450.41;10263030;28;96808;-83
2022/05/23 19:55:01;;;;;;;0.20;0.20;;;19.10;61.10;;;18.01;48.51;99437.22;10225198;28;96951;-83
2022/05/23 20:00:05;;;;;;;0.20;0.20;;;19.10;61.30;;;17.99;48.62;99443.88;10257769;28;96777;-83
2022/05/23 20:10:32;;;;;;;0.82;0.52;;;19.10;61.50;;;17.82;49.65;99438.41;10245151;28;97011;-83
2022/05/23 20:15:36;;;;;;;0.30;0.22;;;19.00;61.70;;;17.66;50.73;99442.56;10249396;28;96790;-83
2022/05/23 20:20:43;;;;;;;0.50;0.50;;;18.90;63.60;;;17.45;51.58;99435.84;10234081;28;96707;-83
2022/05/23 20:25:46;;;;;;;1.67;0.73;;;18.70;64.40;;;17.31;51.94;99443.31;10248998;28;96765;-82
2022/05/23 20:30:49;;;;;;;0.57;0.35;;;18.50;63.50;;;17.12;52.37;99441.75;10265806;28;98030;-82
2022/05/23 20:35:52;;;;;;;0.88;0.50;;;18.40;65.50;;;17.01;52.35;99446.03;10243189;28;96838;-82
2022/05/23 20:40:55;;;;;;;2.40;0.88;;;18.20;64.40;;;16.91;52.38;99447.59;10253424;28;96516;-82
2022/05/23 20:45:58;;;;;;;0.32;0.30;;;18.20;64.70;;;16.80;53.01;99455.41;10237999;28;97116;-83
2022/05/23 20:51:01;;;;;;;1.55;0.82;;;18.00;66.30;;;16.69;53.52;99460.69;10226035;28;97366;-83
2022/05/23 20:56:04;;;;;;;0.75;0.40;;;17.90;67.10;;;16.60;53.76;99449.41;10247914;28;98023;-83
2022/05/23 21:01:07;;;;;;;1.75;0.57;;;17.80;66.70;;;16.52;54.03;99445.19;10257089;28;97205;-83
2022/05/23 21:06:11;;;;;;;1.45;0.45;;;17.70;67.20;;;16.44;54.76;99439.31;10218987;28;97248;-83
2022/05/23 21:11:15;;;;;;;2.38;0.52;;;17.60;68.00;;;16.33;54.89;99441.69;10234967;28;96751;-83
2022/05/23 21:16:18;;;;;;;0.40;0.40;;;17.50;68.70;;;16.22;55.01;99446.97;10250298;28;96727;-83
2022/05/23 21:21:21;;;;;;;0.80;0.55;;;17.40;67.80;;;16.21;55.77;99438.13;10256862;28;96851;-83
2022/05/23 21:26:25;;;;;;;0.40;0.40;;;17.40;67.40;;;16.18;56.69;99443.91;10233960;28;97504;-83
2022/05/23 21:31:28;;;;;;;1.90;0.30;;;17.40;66.90;;;16.18;56.47;99451.13;10254330;28;96578;-83
2022/05/23 21:36:31;;;;;;;0.50;0.30;;;17.40;70.30;;;16.10;56.62;99452.25;10250460;28;96663;-83
2022/05/23 21:47:16;;;;;;;0.28;0.25;;;17.20;70.10;;;16.06;56.44;99485.88;10262918;28;96891;-83
2022/05/23 21:52:19;;;;;;;1.65;0.80;;;17.20;69.70;;;16.09;56.05;99474.75;10265361;28;96936;-83
2022/05/23 21:57:22;;;;;;;4.10;0.95;;;17.20;69.20;;;16.09;55.91;99484.66;10213392;28;96695;-83
2022/05/23 22:02:25;;;;;;;0.60;0.60;;;17.20;69.60;;;16.08;55.42;99502.59;10267229;28;96593;-83
2022/05/23 22:07:28;;;;;;;0.28;0.28;;;17.20;68.60;;;16.05;55.44;99503.00;10226976;28;97667;-83
2022/05/23 22:12:32;;;;;;;0.10;0.10;;;17.20;68.80;;;16.04;55.40;99504.06;10236095;28;96631;-83
2022/05/23 22:17:34;;;;;;;0.20;0.20;;;17.20;69.60;;;16.03;54.74;99503.25;10236264;28;96704;-83
2022/05/23 22:22:37;;;;;;;0.20;0.20;;;17.20;68.10;;;16.06;54.17;99518.88;10223795;28;98161;-84
2022/05/23 22:27:40;;;;;;;0.43;0.43;;;17.20;67.10;;;16.10;53.62;99521.13;10254626;28;96490;-83
2022/05/23 22:32:43;;;;;;;0.10;0.10;;;17.30;66.50;;;16.07;53.47;99514.31;10253711;28;96543;-83
2022/05/23 22:37:46;;;;;;;0.20;0.20;;;17.30;66.50;;;16.06;53.58;99505.47;10252419;28;98116;-83
2022/05/23 22:42:49;;;;;;;0.45;0.43;;;17.30;66.20;;;16.08;53.43;99510.63;10252628;28;96676;-84
2022/05/23 22:47:53;;;;;;;0.10;0.10;;;17.30;66.10;;;16.07;53.43;99514.31;10250415;28;96437;-83
2022/05/23 22:52:56;;;;;;;0.20;0.20;;;17.40;66.00;;;16.03;53.52;99519.31;10250607;28;96574;-83